sensor_id;sensor_type;location;lat;lon;timestamp;P1;durP1;ratioP1;P2;durP2;ratioP2
14348;SDS011;7258;50.376;8.742;2022-07-29T00:01:15;8.38;;;2.13;;
14348;SDS011;7258;50.376;8.742;2022-07-29T00:03:21;4.35;;;1.80;;
14348;SDS011;7258;50.376;8.742;2022-07-29T00:05:24;9.18;;;2.28;;
14348;SDS011;7258;50.376;8.742;2022-07-29T00:07:27;5.50;;;1.90;;
14348;SDS011;7258;50.376;8.742;2022-07-29T00:09:30;8.07;;;2.42;;
14348;SDS011;7258;50.376;8.742;2022-07-29T00:11:45;7.15;;;2.30;;
14348;SDS011;7258;50.376;8.742;2022-07-29T00:13:47;7.45;;;1.77;;
14348;SDS011;7258;50.376;8.742;2022-07-29T00:15:51;7.15;;;2.15;;
14348;SDS011;7258;50.376;8.742;2022-07-29T00:17:54;6.57;;;2.15;;
14348;SDS011;7258;50.376;8.742;2022-07-29T00:19:58;5.32;;;1.98;;
14348;SDS011;7258;50.376;8.742;2022-07-29T00:22:01;8.00;;;2.13;;
14348;SDS011;7258;50.376;8.742;2022-07-29T00:24:04;4.38;;;2.00;;
14348;SDS011;7258;50.376;8.742;2022-07-29T00:26:07;3.60;;;1.70;;
14348;SDS011;7258;50.376;8.742;2022-07-29T00:28:10;4.78;;;2.00;;
14348;SDS011;7258;50.376;8.742;2022-07-29T00:30:14;2.47;;;1.80;;
14348;SDS011;7258;50.376;8.742;2022-07-29T00:32:17;4.78;;;2.03;;
14348;SDS011;7258;50.376;8.742;2022-07-29T00:34:20;6.43;;;2.10;;
14348;SDS011;7258;50.376;8.742;2022-07-29T00:36:41;7.22;;;2.03;;
14348;SDS011;7258;50.376;8.742;2022-07-29T00:38:44;2.10;;;1.83;;
14348;SDS011;7258;50.376;8.742;2022-07-29T00:40:47;7.57;;;2.08;;
14348;SDS011;7258;50.376;8.742;2022-07-29T00:42:51;4.57;;;1.52;;
14348;SDS011;7258;50.376;8.742;2022-07-29T00:44:54;4.88;;;1.80;;
14348;SDS011;7258;50.376;8.742;2022-07-29T00:46:57;4.18;;;1.98;;
14348;SDS011;7258;50.376;8.742;2022-07-29T00:49:00;3.33;;;1.63;;
14348;SDS011;7258;50.376;8.742;2022-07-29T00:51:04;7.00;;;1.70;;
14348;SDS011;7258;50.376;8.742;2022-07-29T00:53:10;4.00;;;1.98;;
14348;SDS011;7258;50.376;8.742;2022-07-29T00:55:15;2.65;;;1.70;;
14348;SDS011;7258;50.376;8.742;2022-07-29T00:57:18;6.15;;;2.08;;
14348;SDS011;7258;50.376;8.742;2022-07-29T00:59:22;2.42;;;1.63;;
14348;SDS011;7258;50.376;8.742;2022-07-29T01:01:35;4.63;;;1.88;;
14348;SDS011;7258;50.376;8.742;2022-07-29T01:03:38;6.60;;;1.80;;
14348;SDS011;7258;50.376;8.742;2022-07-29T01:05:41;4.68;;;1.80;;
14348;SDS011;7258;50.376;8.742;2022-07-29T01:07:52;6.43;;;2.00;;
14348;SDS011;7258;50.376;8.742;2022-07-29T01:09:57;9.00;;;2.03;;
14348;SDS011;7258;50.376;8.742;2022-07-29T01:12:01;6.05;;;2.10;;
14348;SDS011;7258;50.376;8.742;2022-07-29T01:14:08;6.72;;;2.53;;
14348;SDS011;7258;50.376;8.742;2022-07-29T01:16:13;5.93;;;2.50;;
14348;SDS011;7258;50.376;8.742;2022-07-29T01:18:20;7.95;;;2.63;;
14348;SDS011;7258;50.376;8.742;2022-07-29T01:20:34;12.27;;;3.45;;
14348;SDS011;7258;50.376;8.742;2022-07-29T01:22:53;13.00;;;3.35;;
14348;SDS011;7258;50.376;8.742;2022-07-29T01:25:19;9.18;;;3.20;;
14348;SDS011;7258;50.376;8.742;2022-07-29T01:28:07;8.73;;;3.30;;
14348;SDS011;7258;50.376;8.742;2022-07-29T01:30:24;8.00;;;3.85;;
14348;SDS011;7258;50.376;8.742;2022-07-29T01:32:31;7.90;;;3.70;;
14348;SDS011;7258;50.376;8.742;2022-07-29T01:34:39;8.38;;;4.25;;
14348;SDS011;7258;50.376;8.742;2022-07-29T01:36:50;8.55;;;3.67;;
14348;SDS011;7258;50.376;8.742;2022-07-29T01:38:58;7.82;;;4.35;;
14348;SDS011;7258;50.376;8.742;2022-07-29T01:41:09;10.18;;;4.07;;
14348;SDS011;7258;50.376;8.742;2022-07-29T01:43:17;8.70;;;4.38;;
14348;SDS011;7258;50.376;8.742;2022-07-29T01:45:25;7.25;;;4.30;;
14348;SDS011;7258;50.376;8.742;2022-07-29T01:47:33;8.25;;;4.72;;
14348;SDS011;7258;50.376;8.742;2022-07-29T01:49:43;11.07;;;5.30;;
14348;SDS011;7258;50.376;8.742;2022-07-29T01:51:51;12.63;;;4.95;;
14348;SDS011;7258;50.376;8.742;2022-07-29T01:54:00;9.47;;;5.80;;
14348;SDS011;7258;50.376;8.742;2022-07-29T01:56:06;11.13;;;4.97;;
14348;SDS011;7258;50.376;8.742;2022-07-29T01:58:12;6.68;;;4.45;;
14348;SDS011;7258;50.376;8.742;2022-07-29T02:00:20;9.60;;;4.35;;
14348;SDS011;7258;50.376;8.742;2022-07-29T02:02:25;5.63;;;4.00;;
14348;SDS011;7258;50.376;8.742;2022-07-29T02:04:30;7.20;;;3.60;;
14348;SDS011;7258;50.376;8.742;2022-07-29T02:06:35;7.07;;;4.05;;
14348;SDS011;7258;50.376;8.742;2022-07-29T02:08:40;7.47;;;4.40;;
14348;SDS011;7258;50.376;8.742;2022-07-29T02:10:44;7.50;;;3.72;;
14348;SDS011;7258;50.376;8.742;2022-07-29T02:12:48;7.87;;;4.13;;
14348;SDS011;7258;50.376;8.742;2022-07-29T02:14:52;9.27;;;4.45;;
14348;SDS011;7258;50.376;8.742;2022-07-29T02:16:56;5.95;;;4.25;;
14348;SDS011;7258;50.376;8.742;2022-07-29T02:19:03;9.68;;;4.65;;
14348;SDS011;7258;50.376;8.742;2022-07-29T02:21:09;6.40;;;3.97;;
14348;SDS011;7258;50.376;8.742;2022-07-29T02:23:17;10.50;;;4.10;;
14348;SDS011;7258;50.376;8.742;2022-07-29T02:25:22;5.05;;;3.67;;
14348;SDS011;7258;50.376;8.742;2022-07-29T02:27:38;5.63;;;3.37;;
14348;SDS011;7258;50.376;8.742;2022-07-29T02:29:43;6.53;;;3.50;;
14348;SDS011;7258;50.376;8.742;2022-07-29T02:31:48;8.20;;;3.77;;
14348;SDS011;7258;50.376;8.742;2022-07-29T02:33:52;7.95;;;4.13;;
14348;SDS011;7258;50.376;8.742;2022-07-29T02:35:57;6.35;;;4.25;;
14348;SDS011;7258;50.376;8.742;2022-07-29T02:38:01;6.57;;;4.07;;
14348;SDS011;7258;50.376;8.742;2022-07-29T02:40:23;5.67;;;3.97;;
14348;SDS011;7258;50.376;8.742;2022-07-29T02:42:26;6.22;;;4.10;;
14348;SDS011;7258;50.376;8.742;2022-07-29T02:44:30;4.68;;;3.40;;
14348;SDS011;7258;50.376;8.742;2022-07-29T02:46:35;6.13;;;3.75;;
14348;SDS011;7258;50.376;8.742;2022-07-29T02:48:41;6.25;;;3.28;;
14348;SDS011;7258;50.376;8.742;2022-07-29T02:50:51;4.57;;;3.35;;
14348;SDS011;7258;50.376;8.742;2022-07-29T02:53:05;6.75;;;2.72;;
14348;SDS011;7258;50.376;8.742;2022-07-29T02:55:15;6.15;;;3.20;;
14348;SDS011;7258;50.376;8.742;2022-07-29T02:57:21;5.93;;;3.40;;
14348;SDS011;7258;50.376;8.742;2022-07-29T02:59:30;6.03;;;3.10;;
14348;SDS011;7258;50.376;8.742;2022-07-29T03:01:39;8.55;;;3.60;;
14348;SDS011;7258;50.376;8.742;2022-07-29T03:03:45;7.05;;;3.22;;
14348;SDS011;7258;50.376;8.742;2022-07-29T03:05:51;4.38;;;2.97;;
14348;SDS011;7258;50.376;8.742;2022-07-29T03:07:57;5.35;;;3.13;;
14348;SDS011;7258;50.376;8.742;2022-07-29T03:10:05;4.20;;;2.55;;
14348;SDS011;7258;50.376;8.742;2022-07-29T03:12:14;8.80;;;2.78;;
14348;SDS011;7258;50.376;8.742;2022-07-29T03:14:18;5.63;;;3.05;;
14348;SDS011;7258;50.376;8.742;2022-07-29T03:16:22;5.55;;;2.85;;
14348;SDS011;7258;50.376;8.742;2022-07-29T03:18:25;4.75;;;2.80;;
14348;SDS011;7258;50.376;8.742;2022-07-29T03:20:28;5.75;;;3.00;;
14348;SDS011;7258;50.376;8.742;2022-07-29T03:22:31;6.35;;;2.70;;
14348;SDS011;7258;50.376;8.742;2022-07-29T03:24:35;3.40;;;2.80;;
14348;SDS011;7258;50.376;8.742;2022-07-29T03:26:40;6.88;;;3.00;;
14348;SDS011;7258;50.376;8.742;2022-07-29T03:28:43;6.88;;;3.20;;
14348;SDS011;7258;50.376;8.742;2022-07-29T03:30:47;5.80;;;3.22;;
14348;SDS011;7258;50.376;8.742;2022-07-29T03:32:51;5.45;;;2.92;;
14348;SDS011;7258;50.376;8.742;2022-07-29T03:34:59;5.70;;;3.17;;
14348;SDS011;7258;50.376;8.742;2022-07-29T03:37:02;4.10;;;3.03;;
14348;SDS011;7258;50.376;8.742;2022-07-29T03:39:05;8.68;;;3.42;;
14348;SDS011;7258;50.376;8.742;2022-07-29T03:41:09;10.27;;;3.78;;
14348;SDS011;7258;50.376;8.742;2022-07-29T03:43:15;7.55;;;3.17;;
14348;SDS011;7258;50.376;8.742;2022-07-29T03:45:20;5.13;;;3.03;;
14348;SDS011;7258;50.376;8.742;2022-07-29T03:47:25;6.32;;;3.08;;
14348;SDS011;7258;50.376;8.742;2022-07-29T03:49:50;10.68;;;3.65;;
14348;SDS011;7258;50.376;8.742;2022-07-29T03:51:55;7.85;;;3.15;;
14348;SDS011;7258;50.376;8.742;2022-07-29T03:53:58;4.03;;;3.15;;
14348;SDS011;7258;50.376;8.742;2022-07-29T03:56:06;6.43;;;3.38;;
14348;SDS011;7258;50.376;8.742;2022-07-29T03:58:12;5.47;;;3.60;;
14348;SDS011;7258;50.376;8.742;2022-07-29T04:00:17;4.78;;;3.35;;
14348;SDS011;7258;50.376;8.742;2022-07-29T04:02:21;3.72;;;3.05;;
14348;SDS011;7258;50.376;8.742;2022-07-29T04:04:32;4.90;;;2.80;;
14348;SDS011;7258;50.376;8.742;2022-07-29T04:06:39;7.63;;;3.33;;
14348;SDS011;7258;50.376;8.742;2022-07-29T04:08:42;4.85;;;3.50;;
14348;SDS011;7258;50.376;8.742;2022-07-29T04:10:45;4.03;;;3.20;;
14348;SDS011;7258;50.376;8.742;2022-07-29T04:12:48;3.40;;;3.10;;
14348;SDS011;7258;50.376;8.742;2022-07-29T04:14:53;6.55;;;3.53;;
14348;SDS011;7258;50.376;8.742;2022-07-29T04:16:56;9.48;;;3.50;;
14348;SDS011;7258;50.376;8.742;2022-07-29T04:18:59;4.50;;;3.17;;
14348;SDS011;7258;50.376;8.742;2022-07-29T04:21:02;5.73;;;3.70;;
14348;SDS011;7258;50.376;8.742;2022-07-29T04:23:05;6.25;;;3.72;;
14348;SDS011;7258;50.376;8.742;2022-07-29T04:25:08;5.37;;;4.40;;
14348;SDS011;7258;50.376;8.742;2022-07-29T04:27:11;6.88;;;4.43;;
14348;SDS011;7258;50.376;8.742;2022-07-29T04:29:14;7.60;;;4.40;;
14348;SDS011;7258;50.376;8.742;2022-07-29T04:31:18;7.87;;;5.73;;
14348;SDS011;7258;50.376;8.742;2022-07-29T04:33:26;18.13;;;8.27;;
14348;SDS011;7258;50.376;8.742;2022-07-29T04:35:29;26.67;;;7.57;;
14348;SDS011;7258;50.376;8.742;2022-07-29T04:37:38;17.67;;;6.80;;
14348;SDS011;7258;50.376;8.742;2022-07-29T04:39:41;11.63;;;6.50;;
14348;SDS011;7258;50.376;8.742;2022-07-29T04:41:44;8.97;;;6.10;;
14348;SDS011;7258;50.376;8.742;2022-07-29T04:43:48;14.83;;;7.23;;
14348;SDS011;7258;50.376;8.742;2022-07-29T04:45:52;14.50;;;7.90;;
14348;SDS011;7258;50.376;8.742;2022-07-29T04:47:56;8.17;;;6.83;;
14348;SDS011;7258;50.376;8.742;2022-07-29T04:49:59;9.77;;;6.43;;
14348;SDS011;7258;50.376;8.742;2022-07-29T04:52:03;13.67;;;7.93;;
14348;SDS011;7258;50.376;8.742;2022-07-29T04:54:06;10.33;;;7.77;;
14348;SDS011;7258;50.376;8.742;2022-07-29T04:56:09;8.80;;;6.50;;
14348;SDS011;7258;50.376;8.742;2022-07-29T04:58:12;10.23;;;8.33;;
14348;SDS011;7258;50.376;8.742;2022-07-29T05:00:15;10.67;;;7.40;;
14348;SDS011;7258;50.376;8.742;2022-07-29T05:02:18;13.03;;;7.07;;
14348;SDS011;7258;50.376;8.742;2022-07-29T05:04:22;11.80;;;7.33;;
14348;SDS011;7258;50.376;8.742;2022-07-29T05:06:25;13.33;;;8.50;;
14348;SDS011;7258;50.376;8.742;2022-07-29T05:08:28;13.97;;;8.37;;
14348;SDS011;7258;50.376;8.742;2022-07-29T05:10:31;12.17;;;9.10;;
14348;SDS011;7258;50.376;8.742;2022-07-29T05:12:36;13.63;;;9.03;;
14348;SDS011;7258;50.376;8.742;2022-07-29T05:14:39;15.73;;;9.77;;
14348;SDS011;7258;50.376;8.742;2022-07-29T05:16:42;14.03;;;10.17;;
14348;SDS011;7258;50.376;8.742;2022-07-29T05:18:45;14.13;;;10.10;;
14348;SDS011;7258;50.376;8.742;2022-07-29T05:20:49;13.97;;;9.57;;
14348;SDS011;7258;50.376;8.742;2022-07-29T05:22:52;13.10;;;9.77;;
14348;SDS011;7258;50.376;8.742;2022-07-29T05:24:55;13.17;;;8.57;;
14348;SDS011;7258;50.376;8.742;2022-07-29T05:26:58;11.00;;;7.07;;
14348;SDS011;7258;50.376;8.742;2022-07-29T05:29:01;11.00;;;7.80;;
14348;SDS011;7258;50.376;8.742;2022-07-29T05:31:04;12.37;;;7.43;;
14348;SDS011;7258;50.376;8.742;2022-07-29T05:33:07;8.37;;;7.07;;
14348;SDS011;7258;50.376;8.742;2022-07-29T05:35:30;8.93;;;6.90;;
14348;SDS011;7258;50.376;8.742;2022-07-29T05:37:34;9.20;;;7.57;;
14348;SDS011;7258;50.376;8.742;2022-07-29T05:39:38;10.23;;;7.00;;
14348;SDS011;7258;50.376;8.742;2022-07-29T05:41:51;10.53;;;7.30;;
14348;SDS011;7258;50.376;8.742;2022-07-29T05:43:53;15.23;;;7.53;;
14348;SDS011;7258;50.376;8.742;2022-07-29T05:45:56;11.47;;;6.27;;
14348;SDS011;7258;50.376;8.742;2022-07-29T05:48:00;10.45;;;6.75;;
14348;SDS011;7258;50.376;8.742;2022-07-29T05:50:03;9.85;;;5.45;;
14348;SDS011;7258;50.376;8.742;2022-07-29T05:52:06;10.87;;;5.23;;
14348;SDS011;7258;50.376;8.742;2022-07-29T05:54:11;7.22;;;5.13;;
14348;SDS011;7258;50.376;8.742;2022-07-29T05:56:14;6.95;;;4.90;;
14348;SDS011;7258;50.376;8.742;2022-07-29T05:58:17;12.75;;;5.07;;
14348;SDS011;7258;50.376;8.742;2022-07-29T06:00:20;9.18;;;4.85;;
14348;SDS011;7258;50.376;8.742;2022-07-29T06:02:24;6.13;;;4.63;;
14348;SDS011;7258;50.376;8.742;2022-07-29T06:04:26;5.32;;;4.45;;
14348;SDS011;7258;50.376;8.742;2022-07-29T06:06:29;8.05;;;4.40;;
14348;SDS011;7258;50.376;8.742;2022-07-29T06:08:32;10.02;;;5.00;;
14348;SDS011;7258;50.376;8.742;2022-07-29T06:10:37;7.30;;;4.63;;
14348;SDS011;7258;50.376;8.742;2022-07-29T06:12:40;6.10;;;4.43;;
14348;SDS011;7258;50.376;8.742;2022-07-29T06:14:43;6.82;;;4.00;;
14348;SDS011;7258;50.376;8.742;2022-07-29T06:16:46;6.65;;;4.05;;
14348;SDS011;7258;50.376;8.742;2022-07-29T06:18:49;6.25;;;4.10;;
14348;SDS011;7258;50.376;8.742;2022-07-29T06:20:52;6.68;;;4.13;;
14348;SDS011;7258;50.376;8.742;2022-07-29T06:22:55;8.02;;;4.32;;
14348;SDS011;7258;50.376;8.742;2022-07-29T06:24:59;11.65;;;4.35;;
14348;SDS011;7258;50.376;8.742;2022-07-29T06:27:04;9.45;;;4.45;;
14348;SDS011;7258;50.376;8.742;2022-07-29T06:29:07;9.90;;;4.43;;
14348;SDS011;7258;50.376;8.742;2022-07-29T06:31:11;7.85;;;3.92;;
14348;SDS011;7258;50.376;8.742;2022-07-29T06:33:17;9.38;;;4.05;;
14348;SDS011;7258;50.376;8.742;2022-07-29T06:35:20;5.20;;;4.10;;
14348;SDS011;7258;50.376;8.742;2022-07-29T06:37:42;7.68;;;3.97;;
14348;SDS011;7258;50.376;8.742;2022-07-29T06:39:49;5.68;;;3.97;;
14348;SDS011;7258;50.376;8.742;2022-07-29T06:42:13;9.65;;;4.05;;
14348;SDS011;7258;50.376;8.742;2022-07-29T06:44:17;7.13;;;4.05;;
14348;SDS011;7258;50.376;8.742;2022-07-29T06:46:20;8.15;;;4.05;;
14348;SDS011;7258;50.376;8.742;2022-07-29T06:48:24;6.93;;;3.88;;
14348;SDS011;7258;50.376;8.742;2022-07-29T06:50:27;6.78;;;3.65;;
14348;SDS011;7258;50.376;8.742;2022-07-29T06:52:30;5.20;;;3.55;;
14348;SDS011;7258;50.376;8.742;2022-07-29T06:54:33;5.80;;;3.53;;
14348;SDS011;7258;50.376;8.742;2022-07-29T06:56:37;6.47;;;3.75;;
14348;SDS011;7258;50.376;8.742;2022-07-29T06:58:44;7.03;;;3.33;;
14348;SDS011;7258;50.376;8.742;2022-07-29T07:00:47;9.15;;;4.20;;
14348;SDS011;7258;50.376;8.742;2022-07-29T07:02:50;6.38;;;3.50;;
14348;SDS011;7258;50.376;8.742;2022-07-29T07:04:53;4.90;;;3.38;;
14348;SDS011;7258;50.376;8.742;2022-07-29T07:06:56;6.15;;;3.25;;
14348;SDS011;7258;50.376;8.742;2022-07-29T07:09:00;8.55;;;3.53;;
14348;SDS011;7258;50.376;8.742;2022-07-29T07:11:03;5.93;;;3.40;;
14348;SDS011;7258;50.376;8.742;2022-07-29T07:13:07;6.13;;;3.40;;
14348;SDS011;7258;50.376;8.742;2022-07-29T07:15:11;5.70;;;3.35;;
14348;SDS011;7258;50.376;8.742;2022-07-29T07:17:14;7.28;;;3.50;;
14348;SDS011;7258;50.376;8.742;2022-07-29T07:19:17;8.10;;;4.25;;
14348;SDS011;7258;50.376;8.742;2022-07-29T07:21:20;6.22;;;3.13;;
14348;SDS011;7258;50.376;8.742;2022-07-29T07:23:23;12.88;;;3.40;;
14348;SDS011;7258;50.376;8.742;2022-07-29T07:25:27;6.50;;;3.08;;
14348;SDS011;7258;50.376;8.742;2022-07-29T07:27:30;5.47;;;2.80;;
14348;SDS011;7258;50.376;8.742;2022-07-29T07:29:33;4.93;;;3.50;;
14348;SDS011;7258;50.376;8.742;2022-07-29T07:31:37;5.97;;;2.90;;
14348;SDS011;7258;50.376;8.742;2022-07-29T07:33:40;7.72;;;2.97;;
14348;SDS011;7258;50.376;8.742;2022-07-29T07:35:43;5.88;;;3.05;;
14348;SDS011;7258;50.376;8.742;2022-07-29T07:37:46;5.13;;;3.22;;
14348;SDS011;7258;50.376;8.742;2022-07-29T07:39:49;5.32;;;2.70;;
14348;SDS011;7258;50.376;8.742;2022-07-29T07:41:52;6.88;;;2.83;;
14348;SDS011;7258;50.376;8.742;2022-07-29T07:43:56;5.22;;;2.90;;
14348;SDS011;7258;50.376;8.742;2022-07-29T07:45:58;6.53;;;2.83;;
14348;SDS011;7258;50.376;8.742;2022-07-29T07:48:03;4.60;;;2.67;;
14348;SDS011;7258;50.376;8.742;2022-07-29T07:50:11;6.00;;;2.72;;
14348;SDS011;7258;50.376;8.742;2022-07-29T07:52:20;4.30;;;2.47;;
14348;SDS011;7258;50.376;8.742;2022-07-29T07:54:23;5.13;;;3.03;;
14348;SDS011;7258;50.376;8.742;2022-07-29T07:56:26;5.22;;;3.00;;
14348;SDS011;7258;50.376;8.742;2022-07-29T07:58:35;3.92;;;2.65;;
14348;SDS011;7258;50.376;8.742;2022-07-29T08:00:38;4.47;;;2.85;;
14348;SDS011;7258;50.376;8.742;2022-07-29T08:02:41;4.68;;;2.90;;
14348;SDS011;7258;50.376;8.742;2022-07-29T08:04:47;5.38;;;2.83;;
14348;SDS011;7258;50.376;8.742;2022-07-29T08:06:50;8.50;;;3.30;;
14348;SDS011;7258;50.376;8.742;2022-07-29T08:08:55;4.57;;;3.00;;
14348;SDS011;7258;50.376;8.742;2022-07-29T08:11:18;4.85;;;2.95;;
14348;SDS011;7258;50.376;8.742;2022-07-29T08:13:23;5.38;;;3.03;;
14348;SDS011;7258;50.376;8.742;2022-07-29T08:15:29;4.13;;;2.70;;
14348;SDS011;7258;50.376;8.742;2022-07-29T08:17:32;10.07;;;3.00;;
14348;SDS011;7258;50.376;8.742;2022-07-29T08:19:35;4.70;;;2.90;;
14348;SDS011;7258;50.376;8.742;2022-07-29T08:21:41;4.78;;;2.60;;
14348;SDS011;7258;50.376;8.742;2022-07-29T08:23:44;5.53;;;3.00;;
14348;SDS011;7258;50.376;8.742;2022-07-29T08:26:00;5.15;;;3.20;;
14348;SDS011;7258;50.376;8.742;2022-07-29T08:28:03;3.17;;;2.70;;
14348;SDS011;7258;50.376;8.742;2022-07-29T08:30:06;4.05;;;2.80;;
14348;SDS011;7258;50.376;8.742;2022-07-29T08:32:11;3.17;;;2.60;;
14348;SDS011;7258;50.376;8.742;2022-07-29T08:34:33;6.05;;;3.22;;
14348;SDS011;7258;50.376;8.742;2022-07-29T08:36:36;3.20;;;2.80;;
14348;SDS011;7258;50.376;8.742;2022-07-29T08:38:41;3.83;;;2.55;;
14348;SDS011;7258;50.376;8.742;2022-07-29T08:40:44;4.57;;;2.55;;
14348;SDS011;7258;50.376;8.742;2022-07-29T08:42:47;5.72;;;2.58;;
14348;SDS011;7258;50.376;8.742;2022-07-29T08:44:51;4.65;;;2.50;;
14348;SDS011;7258;50.376;8.742;2022-07-29T08:46:54;5.85;;;2.78;;
14348;SDS011;7258;50.376;8.742;2022-07-29T08:48:57;6.13;;;3.00;;
14348;SDS011;7258;50.376;8.742;2022-07-29T08:51:01;8.15;;;3.10;;
14348;SDS011;7258;50.376;8.742;2022-07-29T08:53:05;4.72;;;3.00;;
14348;SDS011;7258;50.376;8.742;2022-07-29T08:55:14;4.35;;;2.92;;
14348;SDS011;7258;50.376;8.742;2022-07-29T08:57:21;7.47;;;2.80;;
14348;SDS011;7258;50.376;8.742;2022-07-29T08:59:28;7.28;;;2.92;;
14348;SDS011;7258;50.376;8.742;2022-07-29T09:01:36;4.28;;;2.88;;
14348;SDS011;7258;50.376;8.742;2022-07-29T09:03:45;4.40;;;2.70;;
14348;SDS011;7258;50.376;8.742;2022-07-29T09:05:51;6.60;;;2.67;;
14348;SDS011;7258;50.376;8.742;2022-07-29T09:07:54;4.03;;;2.60;;
14348;SDS011;7258;50.376;8.742;2022-07-29T09:09:58;4.28;;;2.70;;
14348;SDS011;7258;50.376;8.742;2022-07-29T09:12:03;8.77;;;2.80;;
14348;SDS011;7258;50.376;8.742;2022-07-29T09:14:08;3.90;;;2.53;;
14348;SDS011;7258;50.376;8.742;2022-07-29T09:16:12;4.63;;;2.60;;
14348;SDS011;7258;50.376;8.742;2022-07-29T09:18:36;3.97;;;2.55;;
14348;SDS011;7258;50.376;8.742;2022-07-29T09:20:40;6.50;;;2.45;;
14348;SDS011;7258;50.376;8.742;2022-07-29T09:23:12;4.63;;;2.63;;
14348;SDS011;7258;50.376;8.742;2022-07-29T09:25:31;5.30;;;2.63;;
14348;SDS011;7258;50.376;8.742;2022-07-29T09:27:36;6.35;;;2.63;;
14348;SDS011;7258;50.376;8.742;2022-07-29T09:29:39;4.18;;;2.40;;
14348;SDS011;7258;50.376;8.742;2022-07-29T09:31:43;3.13;;;2.20;;
14348;SDS011;7258;50.376;8.742;2022-07-29T09:33:50;7.03;;;2.60;;
14348;SDS011;7258;50.376;8.742;2022-07-29T09:36:02;6.85;;;2.70;;
14348;SDS011;7258;50.376;8.742;2022-07-29T09:38:10;9.52;;;2.78;;
14348;SDS011;7258;50.376;8.742;2022-07-29T09:40:14;4.45;;;2.38;;
14348;SDS011;7258;50.376;8.742;2022-07-29T09:42:27;3.47;;;2.65;;
14348;SDS011;7258;50.376;8.742;2022-07-29T09:44:41;3.20;;;2.38;;
14348;SDS011;7258;50.376;8.742;2022-07-29T09:46:58;3.22;;;2.30;;
14348;SDS011;7258;50.376;8.742;2022-07-29T09:49:07;5.68;;;2.47;;
14348;SDS011;7258;50.376;8.742;2022-07-29T09:51:17;4.65;;;2.58;;
14348;SDS011;7258;50.376;8.742;2022-07-29T09:53:32;4.47;;;2.15;;
14348;SDS011;7258;50.376;8.742;2022-07-29T09:57:54;5.13;;;2.42;;
14348;SDS011;7258;50.376;8.742;2022-07-29T10:00:19;4.47;;;2.30;;
14348;SDS011;7258;50.376;8.742;2022-07-29T10:02:27;2.65;;;2.13;;
14348;SDS011;7258;50.376;8.742;2022-07-29T10:04:36;7.03;;;2.50;;
14348;SDS011;7258;50.376;8.742;2022-07-29T10:06:54;2.83;;;2.40;;
14348;SDS011;7258;50.376;8.742;2022-07-29T10:09:08;4.65;;;2.47;;
14348;SDS011;7258;50.376;8.742;2022-07-29T10:11:12;5.93;;;2.55;;
14348;SDS011;7258;50.376;8.742;2022-07-29T10:13:16;3.67;;;2.20;;
14348;SDS011;7258;50.376;8.742;2022-07-29T10:15:22;4.55;;;2.58;;
14348;SDS011;7258;50.376;8.742;2022-07-29T10:17:25;3.17;;;2.50;;
14348;SDS011;7258;50.376;8.742;2022-07-29T10:19:29;5.32;;;2.28;;
14348;SDS011;7258;50.376;8.742;2022-07-29T10:21:33;5.82;;;2.65;;
14348;SDS011;7258;50.376;8.742;2022-07-29T10:23:38;5.63;;;2.42;;
14348;SDS011;7258;50.376;8.742;2022-07-29T10:25:47;3.10;;;2.35;;
14348;SDS011;7258;50.376;8.742;2022-07-29T10:27:50;4.70;;;2.40;;
14348;SDS011;7258;50.376;8.742;2022-07-29T10:29:54;3.53;;;2.40;;
14348;SDS011;7258;50.376;8.742;2022-07-29T10:32:04;3.17;;;2.22;;
14348;SDS011;7258;50.376;8.742;2022-07-29T10:34:13;4.47;;;2.63;;
14348;SDS011;7258;50.376;8.742;2022-07-29T10:36:27;5.13;;;2.28;;
14348;SDS011;7258;50.376;8.742;2022-07-29T10:38:44;4.22;;;2.63;;
14348;SDS011;7258;50.376;8.742;2022-07-29T10:40:57;3.58;;;2.28;;
14348;SDS011;7258;50.376;8.742;2022-07-29T10:43:36;6.50;;;2.47;;
14348;SDS011;7258;50.376;8.742;2022-07-29T10:45:43;6.05;;;2.72;;
14348;SDS011;7258;50.376;8.742;2022-07-29T10:48:03;5.72;;;2.63;;
14348;SDS011;7258;50.376;8.742;2022-07-29T10:50:08;7.15;;;2.63;;
14348;SDS011;7258;50.376;8.742;2022-07-29T10:52:17;3.72;;;2.35;;
14348;SDS011;7258;50.376;8.742;2022-07-29T10:54:42;4.63;;;2.38;;
14348;SDS011;7258;50.376;8.742;2022-07-29T10:56:51;5.93;;;2.53;;
14348;SDS011;7258;50.376;8.742;2022-07-29T11:01:29;3.38;;;2.50;;
14348;SDS011;7258;50.376;8.742;2022-07-29T11:03:43;3.38;;;2.10;;
14348;SDS011;7258;50.376;8.742;2022-07-29T11:05:51;6.28;;;2.60;;
14348;SDS011;7258;50.376;8.742;2022-07-29T11:08:16;4.78;;;2.63;;
14348;SDS011;7258;50.376;8.742;2022-07-29T11:10:28;4.07;;;2.42;;
14348;SDS011;7258;50.376;8.742;2022-07-29T11:12:47;5.15;;;2.47;;
14348;SDS011;7258;50.376;8.742;2022-07-29T11:14:56;4.38;;;2.65;;
14348;SDS011;7258;50.376;8.742;2022-07-29T11:17:02;7.38;;;2.60;;
14348;SDS011;7258;50.376;8.742;2022-07-29T11:19:21;4.22;;;2.40;;
14348;SDS011;7258;50.376;8.742;2022-07-29T11:21:37;5.57;;;2.50;;
14348;SDS011;7258;50.376;8.742;2022-07-29T11:24:10;3.10;;;2.05;;
14348;SDS011;7258;50.376;8.742;2022-07-29T11:26:19;5.20;;;2.85;;
14348;SDS011;7258;50.376;8.742;2022-07-29T11:28:24;4.25;;;2.40;;
14348;SDS011;7258;50.376;8.742;2022-07-29T11:32:49;5.40;;;2.83;;
14348;SDS011;7258;50.376;8.742;2022-07-29T11:37:22;3.20;;;2.63;;
14348;SDS011;7258;50.376;8.742;2022-07-29T11:39:29;6.18;;;2.63;;
14348;SDS011;7258;50.376;8.742;2022-07-29T11:41:37;3.17;;;2.10;;
14348;SDS011;7258;50.376;8.742;2022-07-29T11:43:49;5.60;;;2.78;;
14348;SDS011;7258;50.376;8.742;2022-07-29T11:45:53;5.35;;;2.33;;
14348;SDS011;7258;50.376;8.742;2022-07-29T11:47:56;4.43;;;2.53;;
14348;SDS011;7258;50.376;8.742;2022-07-29T11:50:29;4.95;;;2.60;;
14348;SDS011;7258;50.376;8.742;2022-07-29T11:52:35;4.00;;;2.65;;
14348;SDS011;7258;50.376;8.742;2022-07-29T11:54:50;4.30;;;2.72;;
14348;SDS011;7258;50.376;8.742;2022-07-29T11:56:58;3.65;;;2.17;;
14348;SDS011;7258;50.376;8.742;2022-07-29T11:59:03;3.88;;;2.40;;
14348;SDS011;7258;50.376;8.742;2022-07-29T12:01:12;4.05;;;2.80;;
14348;SDS011;7258;50.376;8.742;2022-07-29T12:03:23;3.63;;;2.38;;
14348;SDS011;7258;50.376;8.742;2022-07-29T12:05:39;7.38;;;2.92;;
14348;SDS011;7258;50.376;8.742;2022-07-29T12:07:48;5.00;;;2.38;;
14348;SDS011;7258;50.376;8.742;2022-07-29T12:09:53;2.70;;;2.45;;
14348;SDS011;7258;50.376;8.742;2022-07-29T12:11:57;3.10;;;2.40;;
14348;SDS011;7258;50.376;8.742;2022-07-29T12:14:05;3.47;;;2.15;;
14348;SDS011;7258;50.376;8.742;2022-07-29T12:16:08;2.83;;;2.63;;
14348;SDS011;7258;50.376;8.742;2022-07-29T12:18:15;3.70;;;2.35;;
14348;SDS011;7258;50.376;8.742;2022-07-29T12:20:25;3.08;;;2.35;;
14348;SDS011;7258;50.376;8.742;2022-07-29T12:22:31;2.80;;;2.33;;
14348;SDS011;7258;50.376;8.742;2022-07-29T12:24:47;5.78;;;2.60;;
14348;SDS011;7258;50.376;8.742;2022-07-29T12:26:57;2.65;;;2.30;;
14348;SDS011;7258;50.376;8.742;2022-07-29T12:29:02;2.80;;;2.03;;
14348;SDS011;7258;50.376;8.742;2022-07-29T12:31:16;3.92;;;2.50;;
14348;SDS011;7258;50.376;8.742;2022-07-29T12:33:38;2.55;;;2.22;;
14348;SDS011;7258;50.376;8.742;2022-07-29T12:35:42;3.17;;;2.40;;
14348;SDS011;7258;50.376;8.742;2022-07-29T12:38:05;2.78;;;2.38;;
14348;SDS011;7258;50.376;8.742;2022-07-29T12:40:09;3.17;;;2.38;;
14348;SDS011;7258;50.376;8.742;2022-07-29T12:42:15;2.38;;;2.17;;
14348;SDS011;7258;50.376;8.742;2022-07-29T12:44:19;2.90;;;2.10;;
14348;SDS011;7258;50.376;8.742;2022-07-29T12:46:22;2.97;;;2.15;;
14348;SDS011;7258;50.376;8.742;2022-07-29T12:48:34;4.43;;;2.60;;
14348;SDS011;7258;50.376;8.742;2022-07-29T12:50:51;4.55;;;2.45;;
14348;SDS011;7258;50.376;8.742;2022-07-29T12:53:03;3.72;;;2.20;;
14348;SDS011;7258;50.376;8.742;2022-07-29T12:55:12;2.85;;;2.40;;
14348;SDS011;7258;50.376;8.742;2022-07-29T12:57:15;3.72;;;2.67;;
14348;SDS011;7258;50.376;8.742;2022-07-29T12:59:21;3.63;;;2.22;;
14348;SDS011;7258;50.376;8.742;2022-07-29T13:01:24;5.75;;;2.40;;
14348;SDS011;7258;50.376;8.742;2022-07-29T13:03:28;3.55;;;2.38;;
14348;SDS011;7258;50.376;8.742;2022-07-29T13:05:39;4.05;;;2.28;;